createdAt,value
2023-04-01T00:01:34.710Z,100.00
2023-04-01T00:04:37.607Z,100.00
2023-04-01T00:07:40.263Z,100.00
2023-04-01T00:10:43.074Z,100.00
2023-04-01T00:13:45.779Z,100.00
2023-04-01T00:16:48.426Z,100.00
2023-04-01T00:19:50.776Z,100.00
2023-04-01T00:22:53.584Z,100.00
2023-04-01T00:25:56.060Z,100.00
2023-04-01T00:28:59.317Z,100.00
2023-04-01T00:32:02.178Z,100.00
2023-04-01T00:35:05.561Z,100.00
2023-04-01T00:38:07.854Z,100.00
2023-04-01T00:41:15.297Z,100.00
2023-04-01T00:44:20.765Z,100.00
2023-04-01T00:47:25.062Z,100.00
2023-04-01T00:50:27.889Z,100.00
2023-04-01T00:53:31.371Z,100.00
2023-04-01T00:56:37.930Z,100.00
2023-04-01T00:59:43.375Z,100.00
2023-04-01T01:02:47.370Z,100.00
2023-04-01T01:06:11.166Z,100.00
2023-04-01T01:09:16.383Z,100.00
2023-04-01T01:12:25.380Z,100.00
2023-04-01T01:15:33.787Z,100.00
2023-04-01T01:18:39.417Z,100.00
2023-04-01T01:21:44.769Z,100.00
2023-04-01T01:24:54.412Z,100.00
2023-04-01T01:28:22.823Z,100.00
2023-04-01T01:31:36.266Z,100.00
2023-04-01T01:35:01.741Z,100.00
2023-04-01T01:38:07.012Z,100.00
2023-04-01T01:41:10.921Z,100.00
2023-04-01T01:44:16.311Z,100.00
2023-04-01T01:47:20.907Z,100.00
2023-04-01T01:50:24.975Z,100.00
2023-04-01T01:53:27.710Z,100.00
2023-04-01T01:56:31.907Z,100.00
2023-04-01T01:59:36.778Z,100.00
2023-04-01T02:02:47.163Z,100.00
2023-04-01T02:05:51.275Z,100.00
2023-04-01T02:09:02.184Z,100.00
2023-04-01T02:12:07.040Z,100.00
2023-04-01T02:15:12.966Z,100.00
2023-04-01T02:18:17.101Z,100.00
2023-04-01T02:21:21.795Z,100.00
2023-04-01T02:24:26.189Z,100.00
2023-04-01T02:27:29.329Z,100.00
2023-04-01T02:30:33.068Z,100.00
2023-04-01T02:33:35.884Z,100.00
2023-04-01T02:36:39.049Z,100.00
2023-04-01T02:39:43.396Z,100.00
2023-04-01T02:42:45.883Z,100.00
2023-04-01T02:45:48.457Z,100.00
2023-04-01T02:48:50.927Z,100.00
2023-04-01T02:51:53.724Z,100.00
2023-04-01T02:54:56.850Z,100.00
2023-04-01T02:57:59.811Z,100.00
2023-04-01T03:01:02.551Z,100.00
2023-04-01T03:04:05.467Z,100.00
2023-04-01T03:07:07.950Z,100.00
2023-04-01T03:10:10.854Z,100.00
2023-04-01T03:13:13.221Z,100.00
2023-04-01T03:16:16.112Z,100.00
2023-04-01T03:19:18.473Z,100.00
2023-04-01T03:22:22.047Z,100.00
2023-04-01T03:25:24.479Z,100.00
2023-04-01T03:28:27.115Z,100.00
2023-04-01T03:31:29.692Z,100.00
2023-04-01T03:34:32.519Z,100.00
2023-04-01T03:37:35.288Z,100.00
2023-04-01T03:40:39.306Z,100.00
2023-04-01T03:43:42.370Z,100.00
2023-04-01T03:46:45.428Z,100.00
2023-04-01T03:49:48.213Z,100.00
2023-04-01T03:52:51.135Z,100.00
2023-04-01T03:55:53.801Z,100.00
2023-04-01T03:58:56.537Z,100.00
2023-04-01T04:01:58.989Z,100.00
2023-04-01T04:05:01.665Z,100.00
2023-04-01T04:08:04.506Z,100.00
2023-04-01T04:11:07.583Z,100.00
2023-04-01T04:14:10.022Z,100.00
2023-04-01T04:17:17.299Z,100.00
2023-04-01T04:20:20.574Z,100.00
2023-04-01T04:23:23.542Z,100.00
2023-04-01T04:26:26.762Z,100.00
2023-04-01T04:29:30.104Z,100.00
2023-04-01T04:32:33.829Z,100.00
2023-04-01T04:35:36.524Z,100.00
2023-04-01T04:38:39.133Z,100.00
2023-04-01T04:41:42.261Z,100.00
2023-04-01T04:44:44.635Z,100.00
2023-04-01T04:47:47.453Z,100.00
2023-04-01T04:50:50.865Z,100.00
2023-04-01T04:53:53.779Z,100.00
2023-04-01T04:56:59.085Z,100.00
2023-04-01T05:00:02.068Z,100.00
2023-04-01T05:03:06.578Z,100.00
2023-04-01T05:06:10.105Z,100.00
2023-04-01T05:09:12.644Z,100.00
2023-04-01T05:12:16.572Z,100.00
2023-04-01T05:15:21.128Z,100.00
2023-04-01T05:18:24.070Z,100.00
2023-04-01T05:21:26.533Z,100.00
2023-04-01T05:24:29.300Z,100.00
2023-04-01T05:27:32.244Z,100.00
2023-04-01T05:30:36.057Z,100.00
2023-04-01T05:33:38.720Z,100.00
2023-04-01T05:36:42.703Z,100.00
2023-04-01T05:39:45.410Z,99.25
2023-04-01T05:42:48.452Z,98.14
2023-04-01T05:45:50.923Z,95.49
2023-04-01T05:48:55.749Z,89.30
2023-04-01T05:51:58.727Z,81.25
2023-04-01T05:55:01.508Z,76.81
2023-04-01T05:58:03.908Z,76.76
2023-04-01T06:01:11.215Z,78.76
2023-04-01T06:04:18.423Z,81.86
2023-04-01T06:07:20.793Z,83.99
2023-04-01T06:10:29.345Z,70.75
2023-04-01T06:13:41.043Z,65.17
2023-04-01T06:16:55.893Z,63.29
2023-04-01T06:20:04.122Z,63.48
2023-04-01T06:23:06.863Z,68.96
2023-04-01T06:26:36.851Z,71.02
2023-04-01T06:29:48.331Z,65.30
2023-04-01T06:32:53.753Z,58.90
2023-04-01T06:35:56.549Z,60.37
2023-04-01T06:39:18.554Z,62.96
2023-04-01T06:42:28.030Z,65.64
2023-04-01T06:45:49.379Z,64.62
2023-04-01T06:49:16.289Z,64.46
2023-04-01T06:52:42.859Z,65.84
2023-04-01T06:55:52.336Z,65.32
2023-04-01T06:58:59.236Z,67.05
2023-04-01T07:02:01.900Z,67.24
2023-04-01T07:05:05.425Z,64.07
2023-04-01T07:08:11.484Z,60.66
2023-04-01T07:11:34.560Z,58.78
2023-04-01T07:14:43.017Z,57.29
2023-04-01T07:17:47.087Z,54.35
2023-04-01T07:20:50.061Z,52.21
2023-04-01T07:23:53.921Z,54.42
2023-04-01T07:26:58.325Z,55.53
2023-04-01T07:30:02.877Z,53.96
2023-04-01T07:33:10.631Z,50.62
2023-04-01T07:36:23.112Z,49.16
2023-04-01T07:39:44.815Z,46.88
2023-04-01T07:42:59.889Z,43.90
2023-04-01T07:46:09.144Z,43.65
2023-04-01T07:49:18.403Z,43.26
2023-04-01T07:52:44.233Z,45.11
2023-04-01T07:55:56.732Z,49.51
2023-04-01T07:59:15.974Z,54.25
2023-04-01T08:02:29.262Z,56.73
2023-04-01T08:05:35.354Z,57.64
2023-04-01T08:08:38.627Z,58.14
2023-04-01T08:11:52.893Z,58.21
2023-04-01T08:15:11.851Z,59.59
2023-04-01T08:18:28.617Z,58.78
2023-04-01T08:21:39.887Z,58.69
2023-04-01T08:24:48.050Z,56.16
2023-04-01T08:27:58.679Z,60.42
2023-04-01T08:31:13.615Z,57.61
2023-04-01T08:34:19.499Z,58.14
2023-04-01T08:37:25.574Z,59.08
2023-04-01T08:40:32.491Z,60.23
2023-04-01T08:43:53.790Z,59.50
2023-04-01T08:47:05.550Z,60.71
2023-04-01T08:50:26.867Z,61.06
2023-04-01T08:53:34.945Z,61.94
2023-04-01T08:56:37.606Z,66.25
2023-04-01T08:59:50.370Z,67.50
2023-04-01T09:03:05.353Z,66.87
2023-04-01T09:06:11.082Z,67.48
2023-04-01T09:09:18.555Z,66.25
2023-04-01T09:12:28.060Z,66.22
2023-04-01T09:15:54.214Z,66.12
2023-04-01T09:18:57.898Z,65.84
2023-04-01T09:22:26.907Z,64.80
2023-04-01T09:25:48.196Z,64.39
2023-04-01T09:29:01.529Z,62.48
2023-04-01T09:32:07.007Z,62.69
2023-04-01T09:35:26.157Z,58.09
2023-04-01T09:38:41.309Z,60.44
2023-04-01T09:41:56.709Z,63.20
2023-04-01T09:45:00.858Z,66.00
2023-04-01T09:48:25.744Z,69.21
2023-04-01T09:51:53.441Z,71.68
2023-04-01T09:55:02.162Z,71.73
2023-04-01T09:58:10.922Z,74.29
2023-04-01T10:01:32.558Z,75.04
2023-04-01T10:04:42.249Z,73.08
2023-04-01T10:07:44.898Z,74.42
2023-04-01T10:10:47.693Z,69.96
2023-04-01T10:14:03.757Z,70.28
2023-04-01T10:17:16.416Z,72.05
2023-04-01T10:20:25.408Z,70.19
2023-04-01T10:23:47.043Z,70.65
2023-04-01T10:26:52.976Z,70.94
2023-04-01T10:30:18.258Z,71.38
2023-04-01T10:33:51.400Z,73.96
2023-04-01T10:36:54.201Z,74.96
2023-04-01T10:40:15.586Z,75.47
2023-04-01T10:43:24.826Z,74.53
2023-04-01T10:46:48.134Z,72.30
2023-04-01T10:49:53.877Z,68.63
2023-04-01T10:52:59.161Z,70.78
2023-04-01T10:56:19.376Z,71.59
2023-04-01T10:59:29.845Z,70.66
2023-04-01T11:02:37.310Z,69.69
2023-04-01T11:05:46.873Z,68.94
2023-04-01T11:09:24.713Z,68.25
2023-04-01T11:12:49.096Z,65.57
2023-04-01T11:16:04.761Z,66.65
2023-04-01T11:19:18.249Z,68.22
2023-04-01T11:22:56.259Z,67.02
2023-04-01T11:26:07.586Z,64.73
2023-04-01T11:29:15.510Z,63.98
2023-04-01T11:32:18.382Z,65.52
2023-04-01T11:35:37.600Z,65.50
2023-04-01T11:38:50.749Z,68.52
2023-04-01T11:42:09.212Z,68.89
2023-04-01T11:45:28.703Z,71.30
2023-04-01T11:48:37.264Z,72.83
2023-04-01T11:51:45.937Z,70.91
2023-04-01T11:54:51.644Z,73.38
2023-04-01T11:58:06.730Z,73.64
2023-04-01T12:01:21.679Z,74.21
2023-04-01T12:04:36.148Z,73.64
2023-04-01T12:07:41.835Z,71.46
2023-04-01T12:10:44.475Z,68.22
2023-04-01T12:13:54.214Z,68.30
2023-04-01T12:17:15.835Z,64.34
2023-04-01T12:20:37.229Z,62.31
2023-04-01T12:23:57.987Z,61.94
2023-04-01T12:27:14.714Z,60.15
2023-04-01T12:30:26.634Z,61.53
2023-04-01T12:33:52.308Z,61.27
2023-04-01T12:37:04.067Z,60.90
2023-04-01T12:40:25.706Z,61.85
2023-04-01T12:43:47.318Z,61.19
2023-04-01T12:47:02.156Z,60.83
2023-04-01T12:50:20.783Z,60.73
2023-04-01T12:53:26.084Z,60.49
2023-04-01T12:56:41.544Z,59.24
2023-04-01T12:59:54.688Z,60.18
2023-04-01T13:03:15.265Z,59.91
2023-04-01T13:06:20.425Z,59.10
2023-04-01T13:09:32.764Z,57.46
2023-04-01T13:12:41.294Z,58.16
2023-04-01T13:15:46.697Z,56.69
2023-04-01T13:18:49.102Z,58.34
2023-04-01T13:22:07.737Z,56.99
2023-04-01T13:25:19.054Z,55.16
2023-04-01T13:28:26.934Z,56.63
2023-04-01T13:31:35.125Z,56.20
2023-04-01T13:34:53.518Z,56.18
2023-04-01T13:38:12.064Z,55.81
2023-04-01T13:41:17.934Z,56.04
2023-04-01T13:44:29.428Z,56.16
2023-04-01T13:47:47.178Z,53.20
2023-04-01T13:51:01.927Z,52.61
2023-04-01T13:54:04.730Z,54.06
2023-04-01T13:57:07.096Z,54.36
2023-04-01T14:00:19.051Z,55.24
2023-04-01T14:03:57.488Z,54.70
2023-04-01T14:06:59.808Z,55.75
2023-04-01T14:10:17.870Z,55.01
2023-04-01T14:13:40.502Z,54.51
2023-04-01T14:17:00.128Z,56.05
2023-04-01T14:20:05.275Z,56.37
2023-04-01T14:23:26.604Z,56.55
2023-04-01T14:26:47.851Z,56.17
2023-04-01T14:29:59.649Z,58.20
2023-04-01T14:33:25.226Z,56.40
2023-04-01T14:36:48.105Z,57.71
2023-04-01T14:40:09.234Z,58.01
2023-04-01T14:43:20.954Z,57.56
2023-04-01T14:46:31.210Z,57.92
2023-04-01T14:49:38.572Z,57.77
2023-04-01T14:52:43.275Z,57.66
2023-04-01T14:55:51.444Z,58.07
2023-04-01T14:58:58.704Z,58.21
2023-04-01T15:02:18.872Z,58.94
2023-04-01T15:05:40.235Z,59.18
2023-04-01T15:09:01.214Z,58.56
2023-04-01T15:12:22.626Z,59.25
2023-04-01T15:15:26.342Z,60.70
2023-04-01T15:18:36.964Z,61.58
2023-04-01T15:21:39.756Z,61.83
2023-04-01T15:24:53.457Z,60.93
2023-04-01T15:28:04.793Z,61.34
2023-04-01T15:31:13.372Z,60.79
2023-04-01T15:34:34.770Z,59.20
2023-04-01T15:37:37.175Z,58.28
2023-04-01T15:40:53.023Z,58.83
2023-04-01T15:43:55.829Z,58.68
2023-04-01T15:47:02.310Z,58.75
2023-04-01T15:50:04.670Z,58.32
2023-04-01T15:53:26.048Z,58.50
2023-04-01T15:56:43.830Z,56.78
2023-04-01T16:00:05.045Z,55.76
2023-04-01T16:03:15.740Z,53.96
2023-04-01T16:06:18.545Z,54.05
2023-04-01T16:09:23.620Z,53.73
2023-04-01T16:12:35.228Z,52.83
2023-04-01T16:15:40.614Z,53.06
2023-04-01T16:18:46.293Z,51.96
2023-04-01T16:21:51.496Z,51.42
2023-04-01T16:24:56.874Z,51.29
2023-04-01T16:28:05.534Z,51.53
2023-04-01T16:31:16.719Z,51.77
2023-04-01T16:34:35.507Z,52.03
2023-04-01T16:37:46.942Z,51.99
2023-04-01T16:41:04.594Z,53.54
2023-04-01T16:44:15.456Z,56.37
2023-04-01T16:47:23.276Z,57.44
2023-04-01T16:50:32.723Z,59.38
2023-04-01T16:53:45.799Z,59.00
2023-04-01T16:56:54.953Z,60.17
2023-04-01T17:00:03.164Z,60.58
2023-04-01T17:03:13.353Z,60.77
2023-04-01T17:06:25.540Z,62.02
2023-04-01T17:09:40.498Z,62.79
2023-04-01T17:12:45.893Z,62.87
2023-04-01T17:16:02.630Z,64.03
2023-04-01T17:19:25.657Z,64.32
2023-04-01T17:22:34.470Z,64.75
2023-04-01T17:25:48.525Z,65.80
2023-04-01T17:29:02.542Z,66.71
2023-04-01T17:32:04.813Z,66.83
2023-04-01T17:35:15.474Z,67.55
2023-04-01T17:38:28.679Z,68.18
2023-04-01T17:41:31.301Z,69.73
2023-04-01T17:44:36.380Z,71.41
2023-04-01T17:47:58.273Z,71.38
2023-04-01T17:51:21.677Z,71.13
2023-04-01T17:54:56.978Z,71.58
2023-04-01T17:58:04.405Z,71.72
2023-04-01T18:01:25.854Z,73.08
2023-04-01T18:04:42.808Z,73.47
2023-04-01T18:08:05.374Z,73.96
2023-04-01T18:11:22.906Z,74.01
2023-04-01T18:14:37.605Z,77.14
2023-04-01T18:17:40.476Z,77.02
2023-04-01T18:21:01.776Z,77.65
2023-04-01T18:24:15.667Z,77.83
2023-04-01T18:27:32.917Z,78.42
2023-04-01T18:30:36.816Z,79.37
2023-04-01T18:33:45.595Z,80.98
2023-04-01T18:36:57.550Z,80.62
2023-04-01T18:40:13.913Z,80.94
2023-04-01T18:43:31.298Z,80.98
2023-04-01T18:46:33.569Z,80.43
2023-04-01T18:49:42.286Z,81.86
2023-04-01T18:52:45.352Z,82.52
2023-04-01T18:55:50.805Z,83.32
2023-04-01T18:59:02.837Z,84.37
2023-04-01T19:02:14.843Z,85.65
2023-04-01T19:05:26.312Z,86.39
2023-04-01T19:08:32.956Z,86.89
2023-04-01T19:11:51.257Z,87.65
2023-04-01T19:14:54.521Z,88.07
2023-04-01T19:18:03.736Z,87.66
2023-04-01T19:21:14.879Z,87.64
2023-04-01T19:24:22.341Z,88.27
2023-04-01T19:27:32.640Z,88.12
2023-04-01T19:30:52.044Z,87.43
2023-04-01T19:34:04.124Z,87.50
2023-04-01T19:37:22.022Z,90.27
2023-04-01T19:40:37.339Z,89.56
2023-04-01T19:43:58.590Z,90.93
2023-04-01T19:47:19.961Z,88.95
2023-04-01T19:50:36.794Z,87.66
2023-04-01T19:53:57.689Z,87.02
2023-04-01T19:57:03.447Z,87.10
2023-04-01T20:00:09.108Z,86.40
2023-04-01T20:03:14.962Z,86.94
2023-04-01T20:06:20.480Z,86.74
2023-04-01T20:09:36.166Z,87.36
2023-04-01T20:12:44.735Z,89.43
2023-04-01T20:16:02.832Z,87.89
2023-04-01T20:19:05.531Z,88.35
2023-04-01T20:22:26.213Z,90.08
2023-04-01T20:25:33.194Z,91.33
2023-04-01T20:28:45.397Z,92.38
2023-04-01T20:32:11.154Z,93.61
2023-04-01T20:35:19.496Z,94.46
2023-04-01T20:38:24.781Z,94.44
2023-04-01T20:41:29.173Z,95.73
2023-04-01T20:44:40.822Z,96.80
2023-04-01T20:47:49.353Z,98.29
2023-04-01T20:50:58.686Z,99.59
2023-04-01T20:54:01.335Z,100.00
2023-04-01T20:57:10.204Z,100.00
2023-04-01T21:00:25.541Z,100.00
2023-04-01T21:03:28.049Z,100.00
2023-04-01T21:06:42.676Z,100.00
2023-04-01T21:09:47.966Z,100.00
2023-04-01T21:12:56.112Z,100.00
2023-04-01T21:16:04.681Z,100.00
2023-04-01T21:19:26.818Z,100.00
2023-04-01T21:22:40.394Z,100.00
2023-04-01T21:25:42.994Z,100.00
2023-04-01T21:28:54.875Z,100.00
2023-04-01T21:32:16.736Z,100.00
2023-04-01T21:35:24.906Z,100.00
2023-04-01T21:38:33.292Z,100.00
2023-04-01T21:41:35.938Z,100.00
2023-04-01T21:44:42.794Z,100.00
2023-04-01T21:48:02.710Z,100.00
2023-04-01T21:51:08.246Z,100.00
2023-04-01T21:54:29.424Z,100.00
2023-04-01T21:57:37.994Z,100.00
2023-04-01T22:01:00.611Z,100.00
2023-04-01T22:04:32.357Z,96.70
2023-04-01T22:07:34.572Z,94.11
2023-04-01T22:10:50.162Z,93.50
2023-04-01T22:13:56.041Z,93.57
2023-04-01T22:17:04.694Z,92.58
2023-04-01T22:20:13.166Z,92.24
2023-04-01T22:23:18.634Z,92.69
2023-04-01T22:26:27.896Z,93.46
2023-04-01T22:29:47.554Z,93.47
2023-04-01T22:32:58.160Z,93.44
2023-04-01T22:36:07.415Z,94.63
2023-04-01T22:39:12.811Z,94.35
2023-04-01T22:42:15.813Z,94.64
2023-04-01T22:45:30.240Z,95.51
2023-04-01T22:48:34.095Z,95.92
2023-04-01T22:51:42.808Z,96.46
2023-04-01T22:54:52.264Z,97.66
2023-04-01T22:57:59.489Z,98.03
2023-04-01T23:01:13.519Z,98.38
2023-04-01T23:04:18.196Z,98.11
2023-04-01T23:07:27.715Z,98.20
2023-04-01T23:10:39.728Z,99.05
2023-04-01T23:13:46.311Z,99.15
2023-04-01T23:16:55.060Z,99.74
2023-04-01T23:19:57.615Z,100.00
2023-04-01T23:23:15.362Z,100.00
2023-04-01T23:26:33.737Z,100.00
2023-04-01T23:29:40.969Z,100.00
2023-04-01T23:32:43.661Z,100.00
2023-04-01T23:35:51.029Z,100.00
2023-04-01T23:38:55.264Z,100.00
2023-04-01T23:42:00.664Z,100.00
2023-04-01T23:45:06.470Z,100.00
2023-04-01T23:48:12.313Z,100.00
2023-04-01T23:51:20.486Z,100.00
2023-04-01T23:54:34.261Z,100.00
2023-04-01T23:57:37.860Z,100.00
